Time;durP1;ratioP1;P1;durP2;ratioP2;P2;SDS_P1;SDS_P2;PMS_P1;PMS_P2;Temp;Humidity;BMP_temperature;BMP_pressure;BME280_temperature;BME280_humidity;BME280_pressure;Samples;Min_cycle;Max_cycle;Signal;HPM_P1;HPM_P2
2023/12/25 00:01:48;;;;;;;19.20;3.72;;;10.20;99.90;;;;;;5092088;28;20111;-80
2023/12/25 00:04:13;;;;;;;13.82;2.58;;;10.20;99.90;;;;;;5110752;28;20030;-80
2023/12/25 00:06:39;;;;;;;15.02;3.28;;;10.20;99.90;;;;;;5110142;28;20098;-79
2023/12/25 00:09:05;;;;;;;14.48;2.90;;;10.20;99.90;;;;;;5110927;28;20015;-80
2023/12/25 00:11:30;;;;;;;17.70;3.20;;;10.20;99.90;;;;;;5109979;28;20055;-80
2023/12/25 00:13:57;;;;;;;13.48;3.10;;;10.10;99.90;;;;;;5092306;28;20020;-79
2023/12/25 00:16:26;;;;;;;9.13;2.70;;;10.10;99.90;;;;;;5110093;28;20114;-80
2023/12/25 00:18:52;;;;;;;16.13;3.28;;;10.00;99.90;;;;;;5110657;28;20024;-80
2023/12/25 00:21:19;;;;;;;17.35;3.85;;;10.00;99.90;;;;;;5118905;28;20032;-80
2023/12/25 00:23:45;;;;;;;15.75;3.13;;;10.00;99.90;;;;;;5130155;27;20421;-80
2023/12/25 00:26:10;;;;;;;16.25;3.35;;;10.00;99.90;;;;;;5131140;27;20049;-79
2023/12/25 00:28:36;;;;;;;17.33;3.30;;;10.00;99.90;;;;;;5131038;28;20405;-80
2023/12/25 00:31:02;;;;;;;18.33;3.13;;;9.90;99.90;;;;;;5130663;28;20026;-80
2023/12/25 00:33:28;;;;;;;18.52;4.05;;;9.90;99.90;;;;;;5130523;27;20391;-79
2023/12/25 00:35:53;;;;;;;15.07;3.30;;;9.90;99.90;;;;;;5134794;27;20030;-80
2023/12/25 00:38:19;;;;;;;20.73;3.78;;;9.80;99.90;;;;;;5135233;27;20019;-80
2023/12/25 00:40:45;;;;;;;14.48;2.72;;;9.80;99.90;;;;;;5116121;27;20027;-80
2023/12/25 00:43:10;;;;;;;19.90;3.28;;;9.80;99.90;;;;;;5135278;27;20427;-80
2023/12/25 00:45:36;;;;;;;15.70;3.25;;;9.80;99.90;;;;;;5134335;27;20015;-80
2023/12/25 00:48:02;;;;;;;12.38;3.33;;;9.80;99.90;;;;;;5134964;27;20440;-80
2023/12/25 00:50:28;;;;;;;15.60;3.13;;;9.80;99.90;;;;;;5134460;27;20101;-80
2023/12/25 00:52:53;;;;;;;21.48;3.15;;;9.80;99.90;;;;;;5134797;27;20467;-80
2023/12/25 00:55:19;;;;;;;12.27;3.33;;;9.80;99.90;;;;;;5134370;27;20031;-80
2023/12/25 00:57:45;;;;;;;12.68;2.47;;;9.80;99.90;;;;;;5134156;27;20174;-80
2023/12/25 01:00:11;;;;;;;22.75;3.22;;;9.80;99.90;;;;;;5134650;27;20152;-80
2023/12/25 01:02:37;;;;;;;14.25;2.75;;;9.80;99.90;;;;;;5133732;27;20019;-80
2023/12/25 01:05:03;;;;;;;17.65;3.15;;;9.80;99.90;;;;;;5134458;27;20023;-80
2023/12/25 01:07:29;;;;;;;17.23;3.13;;;9.90;99.90;;;;;;5133956;27;20019;-80
2023/12/25 01:09:55;;;;;;;23.35;3.28;;;9.80;99.90;;;;;;5134640;27;20409;-80
2023/12/25 01:12:21;;;;;;;17.85;3.13;;;9.90;99.90;;;;;;5134202;27;20032;-80
2023/12/25 01:14:46;;;;;;;15.75;3.05;;;9.90;99.90;;;;;;5133780;27;20156;-80
2023/12/25 01:17:12;;;;;;;14.98;3.20;;;10.00;99.90;;;;;;5134570;27;20027;-80
2023/12/25 01:19:38;;;;;;;18.95;4.18;;;10.00;99.90;;;;;;5134635;27;20022;-80
2023/12/25 01:22:04;;;;;;;14.27;2.97;;;10.00;99.90;;;;;;5116392;27;20022;-79
2023/12/25 01:24:30;;;;;;;14.32;2.70;;;10.00;99.90;;;;;;5134141;27;20371;-79
2023/12/25 01:26:56;;;;;;;19.40;3.38;;;10.00;99.90;;;;;;5134817;27;20095;-79
2023/12/25 01:29:21;;;;;;;19.50;3.05;;;10.00;99.90;;;;;;5115526;27;20110;-78
2023/12/25 01:31:47;;;;;;;14.48;3.17;;;10.00;99.90;;;;;;5134042;27;20088;-79
2023/12/25 01:34:13;;;;;;;14.25;2.78;;;10.00;99.90;;;;;;5115804;27;20023;-79
2023/12/25 01:36:38;;;;;;;20.45;4.18;;;10.00;99.90;;;;;;5133587;27;20027;-79
2023/12/25 01:39:04;;;;;;;15.27;2.58;;;10.00;99.90;;;;;;5115877;27;20030;-79
2023/12/25 01:41:30;;;;;;;15.00;3.30;;;10.00;99.90;;;;;;5133387;27;20282;-79
2023/12/25 01:43:56;;;;;;;14.38;2.85;;;10.00;99.90;;;;;;5134521;27;20023;-79
2023/12/25 01:46:22;;;;;;;13.07;3.28;;;9.90;99.90;;;;;;5115412;27;20023;-79
2023/12/25 01:48:51;;;;;;;14.95;2.95;;;9.90;99.90;;;;;;5133095;27;20469;-79
2023/12/25 01:51:22;;;;;;;16.23;2.92;;;9.90;99.90;;;;;;5133595;27;20055;-79
2023/12/25 01:53:48;;;;;;;15.77;3.33;;;9.90;99.90;;;;;;5115507;27;20480;-79
2023/12/25 01:56:14;;;;;;;21.83;3.65;;;9.90;99.90;;;;;;5115158;27;20063;-79
2023/12/25 01:58:40;;;;;;;16.90;3.55;;;9.90;99.90;;;;;;5133104;27;20091;-79
2023/12/25 02:01:06;;;;;;;15.32;2.88;;;9.90;99.90;;;;;;5133279;27;20374;-79
2023/12/25 02:03:32;;;;;;;17.90;3.60;;;9.90;99.90;;;;;;5132795;27;20019;-79
2023/12/25 02:05:58;;;;;;;22.75;3.83;;;9.80;99.90;;;;;;5133556;27;20023;-80
2023/12/25 02:08:24;;;;;;;15.95;3.22;;;9.80;99.90;;;;;;5133502;27;20016;-79
2023/12/25 02:10:49;;;;;;;14.57;2.95;;;9.80;99.90;;;;;;5132779;27;20098;-79
2023/12/25 02:13:15;;;;;;;20.30;3.45;;;9.80;99.90;;;;;;5133295;27;20535;-79
2023/12/25 02:15:42;;;;;;;13.52;2.75;;;9.80;99.90;;;;;;5133012;27;20207;-79
2023/12/25 02:18:08;;;;;;;15.25;3.03;;;9.80;99.90;;;;;;5133596;27;20039;-79
2023/12/25 02:20:34;;;;;;;17.25;2.50;;;9.90;99.90;;;;;;5133025;27;20115;-80
2023/12/25 02:23:04;;;;;;;14.82;2.95;;;9.90;99.90;;;;;;5133606;27;20382;-79
2023/12/25 02:25:32;;;;;;;22.05;3.55;;;9.90;99.90;;;;;;5132725;27;20030;-79
2023/12/25 02:28:01;;;;;;;12.02;2.65;;;9.90;99.90;;;;;;5133495;27;20019;-79
2023/12/25 02:30:28;;;;;;;15.88;3.05;;;9.80;99.90;;;;;;5133582;27;20107;-81
2023/12/25 02:32:53;;;;;;;19.58;3.55;;;9.80;99.90;;;;;;5134229;27;20019;-81
2023/12/25 02:35:19;;;;;;;16.60;2.47;;;9.80;99.90;;;;;;5116002;27;20031;-79
2023/12/25 02:37:45;;;;;;;17.88;3.55;;;9.80;99.90;;;;;;5133545;27;20080;-80
2023/12/25 02:40:11;;;;;;;21.05;3.33;;;9.90;99.90;;;;;;5133491;27;20367;-80
2023/12/25 02:42:37;;;;;;;21.30;3.35;;;9.80;99.90;;;;;;5114181;27;20079;-80
2023/12/25 02:45:02;;;;;;;16.40;2.92;;;9.80;99.90;;;;;;5134042;27;20388;-80
2023/12/25 02:47:28;;;;;;;17.00;3.25;;;9.70;99.90;;;;;;5132385;27;20075;-79
2023/12/25 02:49:54;;;;;;;16.50;3.05;;;9.70;99.90;;;;;;5133322;27;20094;-79
2023/12/25 02:52:20;;;;;;;15.38;3.00;;;9.70;99.90;;;;;;5133126;27;20388;-80
2023/12/25 02:54:45;;;;;;;16.00;3.13;;;9.70;99.90;;;;;;5132915;27;20034;-79
2023/12/25 02:57:11;;;;;;;23.00;4.03;;;9.70;99.90;;;;;;5132670;27;20451;-80
2023/12/25 02:59:37;;;;;;;22.95;3.75;;;9.60;99.90;;;;;;5132562;27;20029;-80
2023/12/25 03:02:04;;;;;;;19.80;4.03;;;9.60;99.90;;;;;;5133167;27;20023;-80
2023/12/25 03:04:29;;;;;;;26.42;4.20;;;9.60;99.90;;;;;;5132559;27;20068;-80
2023/12/25 03:06:55;;;;;;;22.08;3.20;;;9.70;99.90;;;;;;5132950;27;20019;-80
2023/12/25 03:09:21;;;;;;;19.65;3.65;;;9.70;99.90;;;;;;5132930;27;20135;-79
2023/12/25 03:11:46;;;;;;;21.52;4.40;;;9.70;99.90;;;;;;5132322;27;20448;-80
2023/12/25 03:14:12;;;;;;;20.85;4.45;;;9.80;99.90;;;;;;5114420;27;20026;-80
2023/12/25 03:16:38;;;;;;;18.52;3.85;;;9.80;99.90;;;;;;5132024;27;20015;-80
2023/12/25 03:19:04;;;;;;;16.83;3.38;;;9.90;99.90;;;;;;5132599;27;20456;-80
2023/12/25 03:21:29;;;;;;;22.85;3.42;;;9.90;99.90;;;;;;5113769;27;20209;-80
2023/12/25 03:23:55;;;;;;;17.30;3.63;;;10.00;99.90;;;;;;5132172;27;20193;-80
2023/12/25 03:26:21;;;;;;;20.45;3.28;;;10.00;99.90;;;;;;5132798;27;20026;-79
2023/12/25 03:28:47;;;;;;;17.10;3.08;;;10.00;99.90;;;;;;5131763;27;20038;-80
2023/12/25 03:31:12;;;;;;;17.45;2.95;;;10.10;99.90;;;;;;5132103;27;20019;-80
2023/12/25 03:33:39;;;;;;;18.08;2.88;;;10.00;99.90;;;;;;5131557;27;20313;-80
2023/12/25 03:36:05;;;;;;;20.33;3.28;;;10.10;99.90;;;;;;5132342;27;20042;-80
2023/12/25 03:38:31;;;;;;;18.95;3.42;;;10.10;99.90;;;;;;5131942;27;20034;-80
2023/12/25 03:40:57;;;;;;;12.48;2.47;;;10.10;99.90;;;;;;5132123;27;20057;-80
2023/12/25 03:43:23;;;;;;;20.02;2.97;;;10.20;99.90;;;;;;5131888;27;20091;-80
2023/12/25 03:45:49;;;;;;;20.77;3.15;;;10.20;99.90;;;;;;5131655;27;20304;-80
2023/12/25 03:48:16;;;;;;;16.63;2.58;;;10.20;99.90;;;;;;5132214;27;20355;-80
2023/12/25 03:50:42;;;;;;;28.95;4.03;;;10.20;99.90;;;;;;5131606;27;20027;-80
2023/12/25 03:53:08;;;;;;;14.55;3.05;;;10.20;99.90;;;;;;5113621;27;20043;-80
2023/12/25 03:55:36;;;;;;;21.48;2.97;;;10.20;99.90;;;;;;5131564;27;20023;-81
2023/12/25 03:58:05;;;;;;;16.70;3.15;;;10.20;99.90;;;;;;5131649;27;20531;-80
2023/12/25 04:00:31;;;;;;;12.65;2.63;;;10.20;99.90;;;;;;5131689;27;20034;-81
2023/12/25 04:02:57;;;;;;;11.93;2.75;;;10.20;99.90;;;;;;5131267;27;20098;-81
2023/12/25 04:05:23;;;;;;;20.50;3.03;;;10.10;99.90;;;;;;5131943;27;20023;-80
2023/12/25 04:07:50;;;;;;;15.75;2.85;;;10.10;99.90;;;;;;5131135;27;20026;-80
2023/12/25 04:10:16;;;;;;;17.60;2.47;;;10.00;99.90;;;;;;5131141;27;20027;-80
2023/12/25 04:12:42;;;;;;;18.08;2.92;;;9.90;99.90;;;;;;5130796;27;20038;-80
2023/12/25 04:15:08;;;;;;;18.25;2.53;;;9.90;99.90;;;;;;5131793;27;20042;-80
2023/12/25 04:17:34;;;;;;;13.45;2.60;;;9.80;99.90;;;;;;5131037;27;20068;-81
2023/12/25 04:20:00;;;;;;;17.50;2.80;;;9.80;99.90;;;;;;5131636;27;20061;-80
2023/12/25 04:22:26;;;;;;;15.93;3.00;;;9.80;99.90;;;;;;5131804;27;20098;-80
2023/12/25 04:24:52;;;;;;;21.75;2.83;;;9.80;99.90;;;;;;5131382;27;20529;-81
2023/12/25 04:27:18;;;;;;;14.18;2.90;;;9.80;99.90;;;;;;5132345;27;20159;-80
2023/12/25 04:29:44;;;;;;;19.60;3.03;;;9.70;99.90;;;;;;5131974;27;20030;-80
2023/12/25 04:32:10;;;;;;;13.00;2.50;;;9.70;99.90;;;;;;5132498;28;20096;-80
2023/12/25 04:34:36;;;;;;;18.33;2.75;;;9.70;99.90;;;;;;5131718;28;20053;-81
2023/12/25 04:37:02;;;;;;;18.77;3.45;;;9.60;99.90;;;;;;5131657;28;20080;-79
2023/12/25 04:39:28;;;;;;;18.50;3.13;;;9.60;99.90;;;;;;5131349;28;20027;-80
2023/12/25 04:41:53;;;;;;;15.32;2.80;;;9.60;99.90;;;;;;5131052;28;20034;-81
2023/12/25 04:44:19;;;;;;;18.52;2.97;;;9.60;99.90;;;;;;5131477;28;20099;-80
2023/12/25 04:46:45;;;;;;;15.65;2.42;;;9.60;99.90;;;;;;5131165;28;20021;-80
2023/12/25 04:49:11;;;;;;;12.38;2.38;;;9.60;99.90;;;;;;5113255;28;20451;-80
2023/12/25 04:51:36;;;;;;;14.55;2.80;;;9.70;99.90;;;;;;5131343;28;20399;-82
2023/12/25 04:54:02;;;;;;;16.80;2.88;;;9.70;99.90;;;;;;5131189;28;20047;-80
2023/12/25 04:56:28;;;;;;;12.98;1.83;;;9.70;99.90;;;;;;5130864;28;20031;-81
2023/12/25 04:58:54;;;;;;;12.50;2.17;;;9.80;99.90;;;;;;5130644;28;20031;-80
2023/12/25 05:01:19;;;;;;;13.65;2.45;;;9.80;99.90;;;;;;5130601;28;20102;-80
2023/12/25 05:03:45;;;;;;;14.20;2.33;;;9.80;99.90;;;;;;5130530;28;20019;-80
2023/12/25 05:06:11;;;;;;;19.20;2.72;;;9.80;99.90;;;;;;5131465;28;20027;-80
2023/12/25 05:08:36;;;;;;;16.17;3.08;;;9.80;99.90;;;;;;5112273;28;20019;-81
2023/12/25 05:11:03;;;;;;;12.40;2.55;;;9.80;99.90;;;;;;5130865;28;20030;-80
2023/12/25 05:13:30;;;;;;;10.32;2.40;;;9.90;99.90;;;;;;5130693;28;20015;-80
2023/12/25 05:15:55;;;;;;;16.92;3.15;;;9.90;99.90;;;;;;5130417;28;20114;-80
2023/12/25 05:18:21;;;;;;;16.15;2.67;;;9.80;99.90;;;;;;5131365;28;20460;-80
2023/12/25 05:20:47;;;;;;;14.93;2.58;;;9.80;99.90;;;;;;5132061;27;20026;-81
2023/12/25 05:23:12;;;;;;;20.38;3.13;;;9.80;99.90;;;;;;5135042;27;20064;-80
2023/12/25 05:25:38;;;;;;;20.55;2.97;;;9.80;99.90;;;;;;5134396;27;20019;-82
2023/12/25 05:28:04;;;;;;;12.40;2.78;;;9.70;99.90;;;;;;5134643;27;20087;-80
2023/12/25 05:30:31;;;;;;;21.20;2.95;;;9.70;99.90;;;;;;5134397;27;20098;-80
2023/12/25 05:32:56;;;;;;;14.50;2.80;;;9.70;99.90;;;;;;5115290;27;20054;-80
2023/12/25 05:35:23;;;;;;;20.63;3.22;;;9.70;99.90;;;;;;5134448;27;20054;-80
2023/12/25 05:37:49;;;;;;;19.88;3.17;;;9.70;99.90;;;;;;5133870;27;20071;-80
2023/12/25 05:40:15;;;;;;;19.73;3.28;;;9.70;99.90;;;;;;5134746;27;20019;-80
2023/12/25 05:42:41;;;;;;;22.23;3.25;;;9.80;99.90;;;;;;5133812;27;20332;-81
2023/12/25 05:45:08;;;;;;;14.65;2.80;;;9.80;99.90;;;;;;5134265;27;20064;-80
2023/12/25 05:47:33;;;;;;;22.67;3.00;;;9.80;99.90;;;;;;5115723;27;20476;-79
2023/12/25 05:49:59;;;;;;;22.25;3.55;;;9.80;99.90;;;;;;5133851;27;20105;-80
2023/12/25 05:52:25;;;;;;;22.92;4.15;;;9.80;99.90;;;;;;5134282;27;20111;-80
2023/12/25 05:54:51;;;;;;;21.63;3.15;;;9.80;99.90;;;;;;5134201;27;20339;-80
2023/12/25 05:57:17;;;;;;;20.27;3.60;;;9.80;99.90;;;;;;5134212;27;20031;-80
2023/12/25 05:59:43;;;;;;;16.48;3.03;;;9.80;99.90;;;;;;5133831;27;20029;-80
2023/12/25 06:02:11;;;;;;;23.15;3.53;;;9.80;99.90;;;;;;5133901;27;20478;-79
2023/12/25 06:04:37;;;;;;;18.45;4.25;;;9.80;99.90;;;;;;5133939;27;20014;-80
2023/12/25 06:07:03;;;;;;;20.67;3.70;;;9.90;99.90;;;;;;5133811;27;20068;-80
2023/12/25 06:09:29;;;;;;;20.02;3.88;;;9.90;99.90;;;;;;5133985;27;20019;-80
2023/12/25 06:11:55;;;;;;;23.27;3.13;;;9.90;99.90;;;;;;5133749;27;20023;-80
2023/12/25 06:14:21;;;;;;;18.60;3.42;;;9.90;99.90;;;;;;5133824;27;20031;-80
2023/12/25 06:16:47;;;;;;;18.27;4.07;;;9.90;99.90;;;;;;5133094;27;20019;-80
2023/12/25 06:19:12;;;;;;;18.15;3.85;;;9.90;99.90;;;;;;5133984;27;20031;-80
2023/12/25 06:21:38;;;;;;;14.60;3.15;;;9.90;99.90;;;;;;5133787;27;20016;-80
2023/12/25 06:24:04;;;;;;;28.65;4.43;;;9.80;99.90;;;;;;5114735;27;20050;-80
2023/12/25 06:26:30;;;;;;;19.80;4.07;;;9.80;99.90;;;;;;5133716;27;20031;-80
2023/12/25 06:28:55;;;;;;;20.85;3.47;;;9.70;99.90;;;;;;5132657;27;20023;-80
2023/12/25 06:31:21;;;;;;;21.25;3.80;;;9.60;99.90;;;;;;5133043;27;20079;-80
2023/12/25 06:33:47;;;;;;;15.52;2.92;;;9.60;99.90;;;;;;5132102;27;20407;-80
2023/12/25 06:36:12;;;;;;;23.88;3.35;;;9.50;99.90;;;;;;5114804;27;20024;-80
2023/12/25 06:38:38;;;;;;;21.45;4.00;;;9.50;99.90;;;;;;5133456;27;20090;-80
2023/12/25 06:41:04;;;;;;;16.17;2.55;;;9.50;99.90;;;;;;5132521;27;20023;-80
2023/12/25 06:43:29;;;;;;;18.55;3.00;;;9.40;99.90;;;;;;5133341;27;20015;-80
2023/12/25 06:45:55;;;;;;;21.88;3.72;;;9.40;99.90;;;;;;5132610;27;20031;-80
2023/12/25 06:48:21;;;;;;;20.48;3.50;;;9.40;99.90;;;;;;5132874;27;20031;-80
2023/12/25 06:50:48;;;;;;;19.90;3.53;;;9.40;99.90;;;;;;5132380;27;20051;-80
2023/12/25 06:53:14;;;;;;;17.30;3.53;;;9.40;99.90;;;;;;5133225;27;20058;-80
2023/12/25 06:55:39;;;;;;;21.25;4.35;;;9.40;99.90;;;;;;5132684;27;20514;-80
2023/12/25 06:58:05;;;;;;;19.60;4.10;;;9.40;99.90;;;;;;5132426;27;20064;-80
2023/12/25 07:00:31;;;;;;;24.85;3.47;;;9.40;99.90;;;;;;5132843;27;20329;-80
2023/12/25 07:02:56;;;;;;;20.77;2.53;;;9.30;99.90;;;;;;5113949;27;20047;-80
2023/12/25 07:05:23;;;;;;;20.95;2.80;;;9.40;99.90;;;;;;5132770;27;20019;-80
2023/12/25 07:07:48;;;;;;;14.10;2.55;;;9.40;99.90;;;;;;5132155;27;20056;-80
2023/12/25 07:10:14;;;;;;;12.20;2.63;;;9.30;99.90;;;;;;5132579;27;20027;-80
2023/12/25 07:12:40;;;;;;;13.63;3.53;;;9.40;99.90;;;;;;5114184;27;20027;-80
2023/12/25 07:15:06;;;;;;;14.38;3.03;;;9.40;99.90;;;;;;5131559;27;20038;-81
2023/12/25 07:17:32;;;;;;;15.90;2.80;;;9.40;99.90;;;;;;5132803;27;20020;-80
2023/12/25 07:19:58;;;;;;;18.42;2.55;;;9.40;99.90;;;;;;5096638;27;20030;-80
2023/12/25 07:22:24;;;;;;;22.10;3.15;;;9.40;99.90;;;;;;5132217;27;20418;-80
2023/12/25 07:24:50;;;;;;;12.25;2.47;;;9.40;99.90;;;;;;5131809;27;20022;-80
2023/12/25 07:27:16;;;;;;;16.83;2.65;;;9.40;99.90;;;;;;5113768;27;20386;-80
2023/12/25 07:29:42;;;;;;;14.35;2.90;;;9.40;99.90;;;;;;5132505;27;20023;-79
2023/12/25 07:32:07;;;;;;;21.67;3.20;;;9.40;99.90;;;;;;5132628;27;20026;-80
2023/12/25 07:34:34;;;;;;;19.25;3.25;;;9.40;99.90;;;;;;5132788;27;20094;-80
2023/12/25 07:37:01;;;;;;;16.58;2.92;;;9.50;99.90;;;;;;5132334;27;20012;-80
2023/12/25 07:39:27;;;;;;;18.00;2.33;;;9.50;99.90;;;;;;5132752;27;20019;-78
2023/12/25 07:41:55;;;;;;;15.07;2.53;;;9.50;99.90;;;;;;5131665;27;20059;-79
2023/12/25 07:44:21;;;;;;;16.05;3.00;;;9.50;99.90;;;;;;5132151;27;20019;-79
2023/12/25 07:46:47;;;;;;;19.13;2.67;;;9.50;99.90;;;;;;5113162;27;20019;-80
2023/12/25 07:49:13;;;;;;;15.10;2.85;;;9.50;99.90;;;;;;5131783;27;20179;-79
2023/12/25 07:51:38;;;;;;;16.52;2.42;;;9.50;99.90;;;;;;5113819;27;20019;-79
2023/12/25 07:54:04;;;;;;;13.18;2.17;;;9.40;99.90;;;;;;5131265;27;20338;-79
2023/12/25 07:56:30;;;;;;;15.80;2.30;;;9.40;99.90;;;;;;5131838;27;20108;-79
2023/12/25 07:58:56;;;;;;;11.55;2.13;;;9.40;99.90;;;;;;5112629;27;20030;-79
2023/12/25 08:01:23;;;;;;;13.98;2.55;;;9.40;99.90;;;;;;5131549;27;20015;-79
2023/12/25 08:03:52;;;;;;;13.05;2.65;;;9.40;99.90;;;;;;5131412;27;20095;-81
2023/12/25 08:06:18;;;;;;;15.60;2.60;;;9.40;99.90;;;;;;5132076;27;20106;-80
2023/12/25 08:08:44;;;;;;;18.38;3.28;;;9.40;99.90;;;;;;5132067;27;20023;-80
2023/12/25 08:11:14;;;;;;;16.17;2.72;;;9.40;99.90;;;;;;5130924;27;20034;-80
2023/12/25 08:13:40;;;;;;;16.73;2.47;;;9.40;99.90;;;;;;5131833;27;20076;-79
2023/12/25 08:16:06;;;;;;;16.50;2.38;;;9.40;99.90;;;;;;5131113;27;20366;-80
2023/12/25 08:18:32;;;;;;;19.63;3.10;;;9.50;99.90;;;;;;5131663;27;20517;-80
2023/12/25 08:20:58;;;;;;;15.80;3.28;;;9.50;99.90;;;;;;5131153;27;20019;-80
2023/12/25 08:23:24;;;;;;;10.18;2.65;;;9.50;99.90;;;;;;5112675;27;20067;-80
2023/12/25 08:25:50;;;;;;;18.15;2.95;;;9.50;99.90;;;;;;5131141;27;20026;-80
2023/12/25 08:28:16;;;;;;;20.88;3.33;;;9.60;99.90;;;;;;5112917;27;20117;-80
2023/12/25 08:30:42;;;;;;;19.63;3.50;;;9.60;99.90;;;;;;5131301;27;20094;-80
2023/12/25 08:33:08;;;;;;;13.88;3.60;;;9.60;99.90;;;;;;5130992;28;20016;-80
2023/12/25 08:35:33;;;;;;;20.55;3.72;;;9.60;99.90;;;;;;5131265;28;20335;-81
2023/12/25 08:37:59;;;;;;;19.77;3.03;;;9.60;99.90;;;;;;5131049;28;20054;-80
2023/12/25 08:40:25;;;;;;;17.77;2.80;;;9.70;99.90;;;;;;5130999;28;20024;-80
2023/12/25 08:42:51;;;;;;;22.33;4.38;;;9.60;99.90;;;;;;5130607;28;20228;-81
2023/12/25 08:45:17;;;;;;;25.25;4.10;;;9.60;99.90;;;;;;5131106;28;20023;-80
2023/12/25 08:47:43;;;;;;;17.95;3.42;;;9.60;99.90;;;;;;5112485;28;20015;-79
2023/12/25 08:50:09;;;;;;;12.85;2.50;;;9.60;99.90;;;;;;5124026;28;20135;-79
2023/12/25 08:52:36;;;;;;;17.08;2.53;;;9.70;99.90;;;;;;5121438;28;20122;-79
2023/12/25 08:55:02;;;;;;;17.80;1.88;;;9.60;99.90;;;;;;5121695;27;20046;-79
2023/12/25 08:57:28;;;;;;;12.77;2.20;;;9.70;99.90;;;;;;5124283;27;20020;-79
2023/12/25 08:59:53;;;;;;;8.63;1.85;;;9.60;99.90;;;;;;5123040;27;20112;-79
2023/12/25 09:02:19;;;;;;;8.90;1.77;;;9.60;99.90;;;;;;5135064;27;20050;-78
2023/12/25 09:04:48;;;;;;;15.40;4.38;;;9.70;99.90;;;;;;5135340;27;20076;-78
2023/12/25 09:07:15;;;;;;;11.07;2.53;;;9.70;99.90;;;;;;5139385;27;20046;-79
2023/12/25 09:09:41;;;;;;;10.70;2.85;;;9.60;99.90;;;;;;5144890;27;20043;-79
2023/12/25 09:12:06;;;;;;;8.13;2.30;;;9.60;99.90;;;;;;5127728;27;20062;-79
2023/12/25 09:14:32;;;;;;;8.48;2.05;;;9.60;99.90;;;;;;5143930;27;20405;-79
2023/12/25 09:16:58;;;;;;;9.75;2.00;;;9.50;99.90;;;;;;5138529;27;20016;-79
2023/12/25 09:19:24;;;;;;;9.95;2.28;;;9.50;99.90;;;;;;5126047;27;20371;-79
2023/12/25 09:21:49;;;;;;;8.07;1.88;;;9.50;99.90;;;;;;5127359;27;20015;-79
2023/12/25 09:24:15;;;;;;;12.60;2.58;;;9.50;99.90;;;;;;5134296;27;20031;-78
2023/12/25 09:26:41;;;;;;;12.50;2.47;;;9.50;99.90;;;;;;5134556;27;20033;-79
2023/12/25 09:29:09;;;;;;;16.92;2.83;;;9.60;99.90;;;;;;5134268;27;20092;-79
2023/12/25 09:31:35;;;;;;;7.38;2.28;;;9.60;99.90;;;;;;5134565;27;20023;-78
2023/12/25 09:34:00;;;;;;;14.07;3.13;;;9.60;99.90;;;;;;5134504;27;20033;-78
2023/12/25 09:36:26;;;;;;;14.65;2.83;;;9.60;99.90;;;;;;5136316;27;20428;-79
2023/12/25 09:38:52;;;;;;;10.07;2.28;;;9.60;99.90;;;;;;5115993;27;20068;-79
2023/12/25 09:41:18;;;;;;;13.88;2.38;;;9.60;99.90;;;;;;5134479;27;20440;-79
2023/12/25 09:43:47;;;;;;;15.30;2.53;;;9.60;99.90;;;;;;5135054;27;20023;-79
2023/12/25 09:46:14;;;;;;;15.25;2.35;;;9.60;99.90;;;;;;5134714;27;20164;-78
2023/12/25 09:48:40;;;;;;;12.40;2.80;;;9.60;99.90;;;;;;5134731;27;20395;-79
2023/12/25 09:51:06;;;;;;;13.90;2.80;;;9.70;99.90;;;;;;5134197;27;20023;-79
2023/12/25 09:53:32;;;;;;;19.98;3.35;;;9.70;99.90;;;;;;5134795;27;20062;-79
2023/12/25 09:56:01;;;;;;;15.75;2.70;;;9.70;99.90;;;;;;5133888;27;20023;-79
2023/12/25 09:58:27;;;;;;;15.80;2.42;;;9.80;99.90;;;;;;5134333;27;20012;-79
2023/12/25 10:00:56;;;;;;;14.27;2.42;;;9.80;99.90;;;;;;5134393;27;20019;-79
2023/12/25 10:03:26;;;;;;;14.63;2.45;;;9.80;99.90;;;;;;5134164;27;20023;-79
2023/12/25 10:05:51;;;;;;;17.75;2.50;;;9.80;99.90;;;;;;5134392;27;20095;-79
2023/12/25 10:08:17;;;;;;;14.27;3.08;;;9.90;99.90;;;;;;5132523;27;20039;-78
2023/12/25 10:10:45;;;;;;;16.33;2.47;;;9.90;99.90;;;;;;5114888;27;20030;-80
2023/12/25 10:13:11;;;;;;;18.67;3.20;;;9.90;99.90;;;;;;5123696;27;20027;-79
2023/12/25 10:15:37;;;;;;;14.73;2.70;;;9.90;99.90;;;;;;5114658;27;20110;-79
2023/12/25 10:18:05;;;;;;;14.73;2.83;;;9.90;99.90;;;;;;5133472;27;20076;-79
2023/12/25 10:20:31;;;;;;;15.02;3.30;;;9.80;99.90;;;;;;5133908;27;20090;-79
2023/12/25 10:22:57;;;;;;;15.15;2.90;;;9.80;99.90;;;;;;5133778;27;20118;-81
2023/12/25 10:25:29;;;;;;;17.15;4.13;;;9.80;99.90;;;;;;5133754;27;20019;-80
2023/12/25 10:27:54;;;;;;;21.05;3.40;;;9.80;99.90;;;;;;5133812;27;20038;-81
2023/12/25 10:30:22;;;;;;;15.25;3.03;;;9.80;99.90;;;;;;5133287;27;20019;-77
2023/12/25 10:32:49;;;;;;;16.38;3.35;;;9.80;99.90;;;;;;5133892;27;20456;-78
2023/12/25 10:35:19;;;;;;;22.38;4.07;;;9.80;99.90;;;;;;5133237;27;20031;-79
2023/12/25 10:37:46;;;;;;;16.05;3.70;;;9.80;99.90;;;;;;5133831;27;20051;-79
2023/12/25 10:40:24;;;;;;;21.63;3.72;;;9.70;99.90;;;;;;5132971;27;20094;-79
2023/12/25 10:42:51;;;;;;;14.63;3.67;;;9.80;99.90;;;;;;5133723;27;20015;-79
2023/12/25 10:45:22;;;;;;;19.17;4.60;;;9.80;99.90;;;;;;5132999;27;20172;-79
2023/12/25 10:47:52;;;;;;;18.15;3.90;;;9.90;99.90;;;;;;5133888;27;20031;-79
2023/12/25 10:50:20;;;;;;;16.02;3.15;;;10.00;99.90;;;;;;5132710;27;20023;-78
2023/12/25 10:52:51;;;;;;;20.13;3.92;;;10.00;99.90;;;;;;5133296;27;20038;-78
2023/12/25 10:55:25;;;;;;;17.45;3.85;;;10.10;99.90;;;;;;5126263;27;20089;-78
2023/12/25 10:57:52;;;;;;;16.17;3.40;;;10.20;99.90;;;;;;5122216;27;20088;-79
2023/12/25 11:00:20;;;;;;;14.95;3.28;;;10.20;99.90;;;;;;5126251;27;20028;-79
2023/12/25 11:02:52;;;;;;;16.55;3.00;;;10.20;99.90;;;;;;5132685;27;20023;-79
2023/12/25 11:05:19;;;;;;;15.83;2.90;;;10.30;99.90;;;;;;5132674;27;20110;-79
2023/12/25 11:07:45;;;;;;;15.10;3.03;;;10.30;99.90;;;;;;5133745;27;20056;-79
2023/12/25 11:10:12;;;;;;;15.05;3.03;;;10.30;99.90;;;;;;5132963;27;20035;-79
2023/12/25 11:12:38;;;;;;;10.80;3.17;;;10.40;99.90;;;;;;5133592;27;20473;-79
2023/12/25 11:15:05;;;;;;;20.33;3.00;;;10.40;99.90;;;;;;5133762;27;20027;-79
2023/12/25 11:17:32;;;;;;;15.30;2.88;;;10.40;99.90;;;;;;5124346;27;20108;-79
2023/12/25 11:20:02;;;;;;;9.00;2.45;;;10.40;99.90;;;;;;5123158;27;20501;-79
2023/12/25 11:22:30;;;;;;;10.80;2.40;;;10.40;99.90;;;;;;5123759;27;20057;-79
2023/12/25 11:25:00;;;;;;;13.07;2.50;;;10.40;99.90;;;;;;5124472;27;20168;-79
2023/12/25 11:27:29;;;;;;;14.40;2.67;;;10.50;99.90;;;;;;5130457;27;20012;-79
2023/12/25 11:30:08;;;;;;;10.65;2.05;;;10.50;99.90;;;;;;5114824;27;20099;-79
2023/12/25 11:32:45;;;;;;;11.23;2.55;;;10.50;99.90;;;;;;5133553;27;20022;-79
2023/12/25 11:35:13;;;;;;;8.57;2.40;;;10.60;99.90;;;;;;5132203;27;20031;-79
2023/12/25 11:37:39;;;;;;;11.25;2.90;;;10.60;99.90;;;;;;5133021;27;20023;-79
2023/12/25 11:40:05;;;;;;;6.50;1.90;;;10.50;99.90;;;;;;5114210;27;20336;-79
2023/12/25 11:42:38;;;;;;;11.38;2.50;;;10.40;99.90;;;;;;5127277;27;20029;-79
2023/12/25 11:45:08;;;;;;;10.60;1.92;;;10.40;99.90;;;;;;5121610;27;20067;-79
2023/12/25 11:47:44;;;;;;;6.70;1.52;;;10.30;99.90;;;;;;5123688;27;20019;-79
2023/12/25 11:50:12;;;;;;;9.60;1.80;;;10.20;99.90;;;;;;5113934;27;20022;-76
2023/12/25 11:52:44;;;;;;;9.93;1.92;;;10.10;99.90;;;;;;5132748;27;20111;-77
2023/12/25 11:55:13;;;;;;;10.05;1.75;;;10.10;99.90;;;;;;5132177;27;20027;-78
2023/12/25 11:57:43;;;;;;;7.28;1.77;;;10.00;99.90;;;;;;5132861;27;20054;-78
2023/12/25 12:00:26;;;;;;;7.15;1.75;;;10.00;99.90;;;;;;5113726;27;20031;-79
2023/12/25 12:02:52;;;;;;;9.45;2.55;;;10.00;99.90;;;;;;5121897;27;20023;-79
2023/12/25 12:05:19;;;;;;;7.55;2.20;;;10.00;99.90;;;;;;5121214;27;20456;-79
2023/12/25 12:07:45;;;;;;;6.93;1.88;;;10.00;99.90;;;;;;5114874;27;20070;-79
2023/12/25 12:10:12;;;;;;;12.70;2.50;;;10.00;99.90;;;;;;5111331;28;20023;-78
2023/12/25 12:12:38;;;;;;;7.65;1.70;;;10.00;99.90;;;;;;5093987;28;20305;-79
2023/12/25 12:15:05;;;;;;;5.53;1.58;;;10.00;99.90;;;;;;5111721;28;20028;-81
2023/12/25 12:17:31;;;;;;;10.57;2.22;;;10.10;99.90;;;;;;5112546;28;20106;-79
2023/12/25 12:19:58;;;;;;;7.45;1.63;;;10.10;99.90;;;;;;5112260;28;20123;-78
2023/12/25 12:22:25;;;;;;;5.82;1.33;;;10.10;99.90;;;;;;5111723;28;20072;-79
2023/12/25 12:24:51;;;;;;;4.40;1.63;;;10.20;99.90;;;;;;5111961;28;20019;-80
2023/12/25 12:27:20;;;;;;;7.10;1.52;;;10.20;99.90;;;;;;5111280;28;20445;-79
2023/12/25 12:29:48;;;;;;;6.22;1.80;;;10.20;99.90;;;;;;5111308;28;20020;-79
2023/12/25 12:32:14;;;;;;;8.32;2.08;;;10.20;99.90;;;;;;5111482;28;20030;-80
2023/12/25 12:34:40;;;;;;;7.97;1.33;;;10.20;99.90;;;;;;5111548;28;20028;-80
2023/12/25 12:37:07;;;;;;;5.05;1.70;;;10.20;99.90;;;;;;5111905;28;20028;-81
2023/12/25 12:39:33;;;;;;;4.60;1.50;;;10.10;99.90;;;;;;5111940;28;20027;-79
2023/12/25 12:41:59;;;;;;;6.32;1.38;;;10.10;99.90;;;;;;5111809;28;20373;-79